createdAt,value
2018-05-21T00:01:57.706Z,15.50
2018-05-21T00:04:25.237Z,15.50
2018-05-21T00:06:52.806Z,15.30
2018-05-21T00:09:20.321Z,15.30
2018-05-21T00:11:47.850Z,15.40
2018-05-21T00:14:15.444Z,15.30
2018-05-21T00:16:43.773Z,15.20
2018-05-21T00:19:11.420Z,15.20
2018-05-21T00:21:38.944Z,15.10
2018-05-21T00:24:06.508Z,15.20
2018-05-21T00:26:34.810Z,15.10
2018-05-21T00:29:02.324Z,15.00
2018-05-21T00:31:30.628Z,14.90
2018-05-21T00:33:58.152Z,14.90
2018-05-21T00:36:25.673Z,14.90
2018-05-21T00:38:53.211Z,14.90
2018-05-21T00:41:20.722Z,14.80
2018-05-21T00:43:49.006Z,14.70
2018-05-21T00:46:16.534Z,14.60
2018-05-21T00:48:44.232Z,14.60
2018-05-21T00:51:12.543Z,14.60
2018-05-21T00:53:40.108Z,14.50
2018-05-21T00:56:07.638Z,14.50
2018-05-21T00:58:35.184Z,14.50
2018-05-21T01:01:02.708Z,14.50
2018-05-21T01:03:30.222Z,14.50
2018-05-21T01:05:57.798Z,14.50
2018-05-21T01:08:25.442Z,14.40
2018-05-21T01:10:52.962Z,14.40
2018-05-21T01:13:20.511Z,14.30
2018-05-21T01:15:48.141Z,14.20
2018-05-21T01:18:15.688Z,14.20
2018-05-21T01:20:43.194Z,14.30
2018-05-21T01:23:10.748Z,14.20
2018-05-21T01:25:38.278Z,14.20
2018-05-21T01:28:05.922Z,14.20
2018-05-21T01:30:33.452Z,14.10
2018-05-21T01:33:01.012Z,14.10
2018-05-21T01:35:28.522Z,14.00
2018-05-21T01:37:56.224Z,14.00
2018-05-21T01:40:23.773Z,14.10
2018-05-21T01:42:51.394Z,14.00
2018-05-21T01:45:18.921Z,14.00
2018-05-21T01:47:46.448Z,14.00
2018-05-21T01:50:13.987Z,13.90
2018-05-21T01:52:41.551Z,14.00
2018-05-21T01:55:09.240Z,14.00
2018-05-21T01:57:37.521Z,13.90
2018-05-21T02:00:05.848Z,13.80
2018-05-21T02:02:33.454Z,13.80
2018-05-21T02:05:01.746Z,13.80
2018-05-21T02:07:29.259Z,13.80
2018-05-21T02:09:57.016Z,13.80
2018-05-21T02:12:24.545Z,13.80
2018-05-21T02:14:52.165Z,13.80
2018-05-21T02:17:20.590Z,13.70
2018-05-21T02:19:48.091Z,13.70
2018-05-21T02:22:15.634Z,13.70
2018-05-21T02:24:43.284Z,13.70
2018-05-21T02:27:10.813Z,13.70
2018-05-21T02:29:38.333Z,13.60
2018-05-21T02:32:05.858Z,13.60
2018-05-21T02:34:33.398Z,13.60
2018-05-21T02:37:00.918Z,13.50
2018-05-21T02:39:29.204Z,13.40
2018-05-21T02:41:56.781Z,13.40
2018-05-21T02:44:24.310Z,13.30
2018-05-21T02:46:52.615Z,13.40
2018-05-21T02:49:20.153Z,13.30
2018-05-21T02:51:47.702Z,13.40
2018-05-21T02:54:16.001Z,13.30
2018-05-21T02:56:43.537Z,13.30
2018-05-21T02:59:11.115Z,13.20
2018-05-21T03:01:38.658Z,13.20
2018-05-21T03:04:06.189Z,13.20
2018-05-21T03:06:34.508Z,13.20
2018-05-21T03:09:02.128Z,13.20
2018-05-21T03:11:29.687Z,13.20
2018-05-21T03:13:57.203Z,13.20
2018-05-21T03:16:24.736Z,13.20
2018-05-21T03:18:53.196Z,13.10
2018-05-21T03:21:20.705Z,13.10
2018-05-21T03:23:48.249Z,13.10
2018-05-21T03:26:15.764Z,13.00
2018-05-21T03:28:43.299Z,13.00
2018-05-21T03:31:10.850Z,13.00
2018-05-21T03:33:38.368Z,13.00
2018-05-21T03:36:05.885Z,13.00
2018-05-21T03:38:33.391Z,13.00
2018-05-21T03:41:00.908Z,12.90
2018-05-21T03:43:28.437Z,12.90
2018-05-21T03:45:55.981Z,12.80
2018-05-21T03:48:23.501Z,12.80
2018-05-21T03:50:51.808Z,12.80
2018-05-21T03:53:19.320Z,12.80
2018-05-21T03:55:46.859Z,12.80
2018-05-21T03:58:26.153Z,12.70
2018-05-21T04:01:05.527Z,12.70
2018-05-21T04:06:34.501Z,12.60
2018-05-21T04:09:02.995Z,12.60
2018-05-21T04:11:30.761Z,12.70
2018-05-21T04:13:58.293Z,12.70
2018-05-21T04:16:26.584Z,12.70
2018-05-21T04:18:54.153Z,12.70
2018-05-21T04:21:21.652Z,12.70
2018-05-21T04:23:49.193Z,12.70
2018-05-21T04:26:16.720Z,12.80
2018-05-21T04:28:44.264Z,12.80
2018-05-21T04:31:11.876Z,12.70
2018-05-21T04:33:39.396Z,12.80
2018-05-21T04:36:06.942Z,12.90
2018-05-21T04:38:34.470Z,12.80
2018-05-21T04:41:02.175Z,12.80
2018-05-21T04:43:29.718Z,12.90
2018-05-21T04:45:57.308Z,12.90
2018-05-21T04:48:24.834Z,13.00
2018-05-21T04:50:52.527Z,13.00
2018-05-21T04:53:20.262Z,13.00
2018-05-21T04:55:48.658Z,13.00
2018-05-21T04:58:16.172Z,13.00
2018-05-21T05:00:43.688Z,13.10
2018-05-21T05:03:11.216Z,13.10
2018-05-21T05:05:38.769Z,13.20
2018-05-21T05:08:06.304Z,13.20
2018-05-21T05:10:33.868Z,13.20
2018-05-21T05:13:01.396Z,13.30
2018-05-21T05:15:28.925Z,13.30
2018-05-21T05:17:56.438Z,13.30
2018-05-21T05:20:23.975Z,13.40
2018-05-21T05:22:51.514Z,13.40
2018-05-21T05:25:19.040Z,13.50
2018-05-21T05:27:47.316Z,13.60
2018-05-21T05:30:15.617Z,13.60
2018-05-21T05:32:43.294Z,13.60
2018-05-21T05:35:10.923Z,13.60
2018-05-21T05:37:38.447Z,13.70
2018-05-21T05:40:07.476Z,13.70
2018-05-21T05:42:34.997Z,13.80
2018-05-21T05:45:02.517Z,13.80
2018-05-21T05:47:30.220Z,13.80
2018-05-21T05:49:58.038Z,13.90
2018-05-21T05:52:25.703Z,13.90
2018-05-21T05:54:53.271Z,14.00
2018-05-21T05:57:20.799Z,14.00
2018-05-21T05:59:48.483Z,14.10
2018-05-21T06:02:16.016Z,14.10
2018-05-21T06:04:43.632Z,14.20
2018-05-21T06:07:11.179Z,14.20
2018-05-21T06:09:38.734Z,14.30
2018-05-21T06:12:06.279Z,14.40
2018-05-21T06:14:34.635Z,14.40
2018-05-21T06:17:02.186Z,14.40
2018-05-21T06:19:30.496Z,14.70
2018-05-21T06:21:58.116Z,14.60
2018-05-21T06:24:26.439Z,14.80
2018-05-21T06:26:54.065Z,14.80
2018-05-21T06:29:22.373Z,14.90
2018-05-21T06:31:49.904Z,14.90
2018-05-21T06:34:17.530Z,15.00
2018-05-21T06:36:45.759Z,15.10
2018-05-21T06:39:13.302Z,15.10
2018-05-21T06:41:40.851Z,15.20
2018-05-21T06:44:09.156Z,15.40
2018-05-21T06:46:36.679Z,15.30
2018-05-21T06:49:04.214Z,15.40
2018-05-21T06:51:31.816Z,15.50
2018-05-21T06:53:59.325Z,15.50
2018-05-21T06:56:26.844Z,15.60
2018-05-21T06:58:54.373Z,15.70
2018-05-21T07:01:22.113Z,15.70
2018-05-21T07:03:49.659Z,15.80
2018-05-21T07:06:17.181Z,15.80
2018-05-21T07:08:44.721Z,16.00
2018-05-21T07:11:12.996Z,16.10
2018-05-21T07:13:41.277Z,16.20
2018-05-21T07:16:08.833Z,16.20
2018-05-21T07:18:36.490Z,16.30
2018-05-21T07:21:04.240Z,16.30
2018-05-21T07:23:32.662Z,16.60
2018-05-21T07:26:00.185Z,16.50
2018-05-21T07:28:28.461Z,16.70
2018-05-21T07:30:56.018Z,16.70
2018-05-21T07:33:23.557Z,16.80
2018-05-21T07:35:51.180Z,16.90
2018-05-21T07:38:20.109Z,17.00
2018-05-21T07:40:47.723Z,17.10
2018-05-21T07:43:15.272Z,17.20
2018-05-21T07:45:42.797Z,17.40
2018-05-21T07:48:10.320Z,17.40
2018-05-21T07:50:37.852Z,17.50
2018-05-21T07:53:05.413Z,17.70
2018-05-21T07:55:32.953Z,17.80
2018-05-21T07:58:00.498Z,17.90
2018-05-21T08:00:28.269Z,18.10
2018-05-21T08:02:56.773Z,18.20
2018-05-21T08:05:24.326Z,18.30
2018-05-21T08:07:51.865Z,18.30
2018-05-21T08:10:20.166Z,18.50
2018-05-21T08:12:47.691Z,18.50
2018-05-21T08:15:15.300Z,18.60
2018-05-21T08:17:42.862Z,18.70
2018-05-21T08:20:10.409Z,18.80
2018-05-21T08:22:38.035Z,18.90
2018-05-21T08:25:06.443Z,19.00
2018-05-21T08:27:34.006Z,19.00
2018-05-21T08:30:01.548Z,19.10
2018-05-21T08:32:29.100Z,19.10
2018-05-21T08:34:57.596Z,19.20
2018-05-21T08:37:25.174Z,19.20
2018-05-21T08:39:52.757Z,19.20
2018-05-21T08:42:20.284Z,19.20
2018-05-21T08:44:47.864Z,19.30
2018-05-21T08:47:15.602Z,19.40
2018-05-21T08:49:43.158Z,19.40
2018-05-21T08:52:10.706Z,19.50
2018-05-21T08:54:38.755Z,19.60
2018-05-21T08:57:06.283Z,19.70
2018-05-21T08:59:33.832Z,19.70
2018-05-21T09:02:01.570Z,19.80
2018-05-21T09:04:29.217Z,19.80
2018-05-21T09:06:56.766Z,19.90
2018-05-21T09:09:25.263Z,19.90
2018-05-21T09:11:53.537Z,20.00
2018-05-21T09:14:21.143Z,19.90
2018-05-21T09:16:48.671Z,20.00
2018-05-21T09:19:16.204Z,20.00
2018-05-21T09:21:43.720Z,20.00
2018-05-21T09:24:11.240Z,20.10
2018-05-21T09:26:38.785Z,20.10
2018-05-21T09:29:06.329Z,20.20
2018-05-21T09:31:34.744Z,20.30
2018-05-21T09:34:02.352Z,20.20
2018-05-21T09:36:31.478Z,20.40
2018-05-21T09:38:59.007Z,20.40
2018-05-21T09:41:27.313Z,20.40
2018-05-21T09:43:54.939Z,20.40
2018-05-21T09:46:22.486Z,20.50
2018-05-21T09:48:50.048Z,20.60
2018-05-21T09:51:17.805Z,20.70
2018-05-21T09:53:45.332Z,20.70
2018-05-21T09:56:12.850Z,20.80
2018-05-21T09:58:41.164Z,20.80
2018-05-21T10:01:08.722Z,20.80
2018-05-21T10:03:36.274Z,20.80
2018-05-21T10:06:03.808Z,20.90
2018-05-21T10:08:31.355Z,20.90
2018-05-21T10:10:59.851Z,21.00
2018-05-21T10:13:28.148Z,21.00
2018-05-21T10:15:55.714Z,21.00
2018-05-21T10:18:23.252Z,21.10
2018-05-21T10:20:51.558Z,21.20
2018-05-21T10:23:19.413Z,21.20
2018-05-21T10:25:46.937Z,21.20
2018-05-21T10:28:14.496Z,21.30
2018-05-21T10:30:42.832Z,21.50
2018-05-21T10:33:10.384Z,21.50
2018-05-21T10:35:37.896Z,21.60
2018-05-21T10:38:06.183Z,21.60
2018-05-21T10:40:33.696Z,21.60
2018-05-21T10:43:01.294Z,21.70
2018-05-21T10:45:29.708Z,21.80
2018-05-21T10:47:57.248Z,21.80
2018-05-21T10:50:24.787Z,21.90
2018-05-21T10:52:52.324Z,22.00
2018-05-21T10:55:19.861Z,22.00
2018-05-21T10:57:47.413Z,22.10
2018-05-21T11:00:14.970Z,22.20
2018-05-21T11:02:42.496Z,22.20
2018-05-21T11:05:10.033Z,22.30
2018-05-21T11:07:38.335Z,22.50
2018-05-21T11:10:05.850Z,22.40
2018-05-21T11:12:33.446Z,22.40
2018-05-21T11:15:01.854Z,22.60
2018-05-21T11:17:29.439Z,22.50
2018-05-21T11:19:57.738Z,22.70
2018-05-21T11:22:25.307Z,22.70
2018-05-21T11:24:53.598Z,22.90
2018-05-21T11:27:21.122Z,22.80
2018-05-21T11:29:48.657Z,22.90
2018-05-21T11:32:16.305Z,23.10
2018-05-21T11:34:43.957Z,23.10
2018-05-21T11:37:11.491Z,23.40
2018-05-21T11:39:39.016Z,23.40
2018-05-21T11:42:08.066Z,23.60
2018-05-21T11:44:35.624Z,23.50
2018-05-21T11:47:03.182Z,23.60
2018-05-21T11:49:30.746Z,23.70
2018-05-21T11:51:58.265Z,23.70
2018-05-21T11:54:26.557Z,23.90
2018-05-21T11:56:54.204Z,23.90
2018-05-21T11:59:22.507Z,24.00
2018-05-21T12:01:50.140Z,23.90
2018-05-21T12:04:18.449Z,24.10
2018-05-21T12:06:45.980Z,24.10
2018-05-21T12:09:13.536Z,24.30
2018-05-21T12:11:41.841Z,24.50
2018-05-21T12:14:09.377Z,24.50
2018-05-21T12:16:36.909Z,24.50
2018-05-21T12:19:05.214Z,24.60
2018-05-21T12:21:32.758Z,24.60
2018-05-21T12:24:00.287Z,24.60
2018-05-21T12:26:27.827Z,24.70
2018-05-21T12:28:55.372Z,24.80
2018-05-21T12:31:22.917Z,25.30
2018-05-21T12:33:50.458Z,25.40
2018-05-21T12:36:18.000Z,25.30
2018-05-21T12:38:45.651Z,25.50
2018-05-21T12:41:13.218Z,26.20
2018-05-21T12:43:40.798Z,25.90
2018-05-21T12:46:09.099Z,25.80
2018-05-21T12:48:36.664Z,25.80
2018-05-21T12:51:04.257Z,25.60
2018-05-21T12:53:31.763Z,25.80
2018-05-21T12:55:59.285Z,25.90
2018-05-21T12:58:27.716Z,26.00
2018-05-21T13:00:55.249Z,26.00
2018-05-21T13:03:23.661Z,26.00
2018-05-21T13:05:51.170Z,26.00
2018-05-21T13:08:19.595Z,26.40
2018-05-21T13:10:47.318Z,26.40
2018-05-21T13:13:15.613Z,26.70
2018-05-21T13:15:43.142Z,26.70
2018-05-21T13:18:12.202Z,27.30
2018-05-21T13:20:39.794Z,27.20
2018-05-21T13:23:07.276Z,27.20
2018-05-21T13:25:35.605Z,27.40
2018-05-21T13:28:03.215Z,27.30
2018-05-21T13:30:30.764Z,27.50
2018-05-21T13:32:58.330Z,27.70
2018-05-21T13:35:26.786Z,28.10
2018-05-21T13:37:55.097Z,28.10
2018-05-21T13:40:22.647Z,28.10
2018-05-21T13:42:50.190Z,28.10
2018-05-21T13:45:18.466Z,29.00
2018-05-21T13:47:46.751Z,29.30
2018-05-21T13:50:15.060Z,29.60
2018-05-21T13:52:42.612Z,29.60
2018-05-21T13:55:10.142Z,29.80
2018-05-21T13:57:38.414Z,29.90
2018-05-21T14:00:06.834Z,30.20
2018-05-21T14:02:34.365Z,30.20
2018-05-21T14:05:02.783Z,30.60
2018-05-21T14:07:30.428Z,30.50
2018-05-21T14:09:57.953Z,30.60
2018-05-21T14:12:26.304Z,31.00
2018-05-21T14:14:53.824Z,30.90
2018-05-21T14:17:21.435Z,31.00
2018-05-21T14:19:49.762Z,31.70
2018-05-21T14:22:17.291Z,31.60
2018-05-21T14:24:45.580Z,31.40
2018-05-21T14:27:13.224Z,31.40
2018-05-21T14:29:41.566Z,31.30
2018-05-21T14:32:09.052Z,31.30
2018-05-21T14:34:36.595Z,31.40
2018-05-21T14:37:04.138Z,31.40
2018-05-21T14:39:31.677Z,31.60
2018-05-21T14:41:59.183Z,32.00
2018-05-21T14:44:27.598Z,32.30
2018-05-21T14:46:55.131Z,32.40
2018-05-21T14:49:23.439Z,32.30
2018-05-21T14:51:50.991Z,32.30
2018-05-21T14:54:18.519Z,32.20
2018-05-21T14:56:46.833Z,32.30
2018-05-21T14:59:14.374Z,32.30
2018-05-21T15:01:41.891Z,32.10
2018-05-21T15:04:09.426Z,31.60
2018-05-21T15:06:36.974Z,31.70
2018-05-21T15:09:04.636Z,31.60
2018-05-21T15:11:32.190Z,31.90
2018-05-21T15:13:59.769Z,32.10
2018-05-21T15:16:27.296Z,32.20
2018-05-21T15:18:54.819Z,32.00
2018-05-21T15:21:22.361Z,32.20
2018-05-21T15:23:49.907Z,32.30
2018-05-21T15:26:17.445Z,32.30
2018-05-21T15:28:44.992Z,32.20
2018-05-21T15:31:12.532Z,32.10
2018-05-21T15:33:40.144Z,31.90
2018-05-21T15:36:07.746Z,31.90
2018-05-21T15:38:36.051Z,31.80
2018-05-21T15:41:03.638Z,31.80
2018-05-21T15:43:31.241Z,31.50
2018-05-21T15:45:58.793Z,31.60
2018-05-21T15:48:27.104Z,31.80
2018-05-21T15:50:54.676Z,31.80
2018-05-21T15:53:22.224Z,31.60
2018-05-21T15:55:49.786Z,31.90
2018-05-21T15:58:17.345Z,31.90
2018-05-21T16:00:44.893Z,32.10
2018-05-21T16:03:12.478Z,32.00
2018-05-21T16:05:40.021Z,31.70
2018-05-21T16:08:07.554Z,31.80
2018-05-21T16:10:35.855Z,31.50
2018-05-21T16:13:03.362Z,31.40
2018-05-21T16:15:31.284Z,31.30
2018-05-21T16:17:58.839Z,31.30
2018-05-21T16:20:26.379Z,31.50
2018-05-21T16:22:53.908Z,31.10
2018-05-21T16:25:21.502Z,30.90
2018-05-21T16:27:49.038Z,31.00
2018-05-21T16:30:17.655Z,30.90
2018-05-21T16:32:45.167Z,30.90
2018-05-21T16:35:12.735Z,30.80
2018-05-21T16:37:40.283Z,30.70
2018-05-21T16:40:07.816Z,30.40
2018-05-21T16:42:35.335Z,30.50
2018-05-21T16:45:02.872Z,30.40
2018-05-21T16:47:31.171Z,30.40
2018-05-21T16:49:58.713Z,30.40
2018-05-21T16:52:26.243Z,30.30
2018-05-21T16:54:53.779Z,30.20
2018-05-21T16:57:21.318Z,30.20
2018-05-21T16:59:48.869Z,30.10
2018-05-21T17:02:16.404Z,29.90
2018-05-21T17:04:43.951Z,29.90
2018-05-21T17:07:12.285Z,29.90
2018-05-21T17:09:39.817Z,29.90
2018-05-21T17:12:07.369Z,29.60
2018-05-21T17:14:35.675Z,29.40
2018-05-21T17:17:03.220Z,29.30
2018-05-21T17:19:30.765Z,29.10
2018-05-21T17:21:58.329Z,29.00
2018-05-21T17:24:25.913Z,29.00
2018-05-21T17:26:53.440Z,28.90
2018-05-21T17:29:21.020Z,29.00
2018-05-21T17:31:48.580Z,29.10
2018-05-21T17:34:16.114Z,28.90
2018-05-21T17:36:43.696Z,28.90
2018-05-21T17:39:11.224Z,29.00
2018-05-21T17:41:39.550Z,28.50
2018-05-21T17:44:07.155Z,28.50
2018-05-21T17:46:35.456Z,28.50
2018-05-21T17:49:03.023Z,28.40
2018-05-21T17:51:30.551Z,28.30
2018-05-21T17:53:58.966Z,28.00
2018-05-21T17:56:26.607Z,28.00
2018-05-21T17:58:54.411Z,28.10
2018-05-21T18:01:21.964Z,28.10
2018-05-21T18:03:49.680Z,28.00
2018-05-21T18:06:17.978Z,28.00
2018-05-21T18:08:45.574Z,28.00
2018-05-21T18:11:13.313Z,27.90
2018-05-21T18:13:41.032Z,27.90
2018-05-21T18:16:08.548Z,27.70
2018-05-21T18:18:36.137Z,27.70
2018-05-21T18:21:03.659Z,27.40
2018-05-21T18:23:31.183Z,27.30
2018-05-21T18:25:59.495Z,27.20
2018-05-21T18:28:27.042Z,27.10
2018-05-21T18:30:54.588Z,27.00
2018-05-21T18:33:22.164Z,27.00
2018-05-21T18:35:49.685Z,26.90
2018-05-21T18:38:17.993Z,26.60
2018-05-21T18:40:45.539Z,26.60
2018-05-21T18:43:13.288Z,26.50
2018-05-21T18:45:41.671Z,26.40
2018-05-21T18:48:09.240Z,26.40
2018-05-21T18:50:36.758Z,26.30
2018-05-21T18:53:04.291Z,26.20
2018-05-21T18:55:31.830Z,26.20
2018-05-21T18:57:59.396Z,25.90
2018-05-21T19:00:27.684Z,25.60
2018-05-21T19:02:55.225Z,25.50
2018-05-21T19:05:22.764Z,25.50
2018-05-21T19:07:50.315Z,25.30
2018-05-21T19:10:18.626Z,24.90
2018-05-21T19:12:46.158Z,24.90
2018-05-21T19:15:13.792Z,24.90
2018-05-21T19:17:41.247Z,24.80
2018-05-21T19:20:08.892Z,24.60
2018-05-21T19:22:36.718Z,24.50
2018-05-21T19:25:04.284Z,24.30
2018-05-21T19:27:31.824Z,24.20
2018-05-21T19:29:59.369Z,24.20
2018-05-21T19:32:26.912Z,24.00
2018-05-21T19:34:55.278Z,23.60
2018-05-21T19:37:22.802Z,23.50
2018-05-21T19:39:50.346Z,23.60
2018-05-21T19:42:17.879Z,23.50
2018-05-21T19:44:45.476Z,23.40
2018-05-21T19:47:13.039Z,23.30
2018-05-21T19:49:40.593Z,23.10
2018-05-21T19:52:08.153Z,23.10
2018-05-21T19:54:35.707Z,22.90
2018-05-21T19:57:03.244Z,22.80
2018-05-21T19:59:30.793Z,22.80
2018-05-21T20:01:59.109Z,22.70
2018-05-21T20:04:26.660Z,22.70
2018-05-21T20:06:54.217Z,22.50
2018-05-21T20:09:21.754Z,22.40
2018-05-21T20:11:49.311Z,22.30
2018-05-21T20:14:16.865Z,22.30
2018-05-21T20:16:44.449Z,22.30
2018-05-21T20:19:11.999Z,22.20
2018-05-21T20:21:39.538Z,22.10
2018-05-21T20:24:07.215Z,22.00
2018-05-21T20:26:34.762Z,22.10
2018-05-21T20:29:02.344Z,22.00
2018-05-21T20:31:29.943Z,22.00
2018-05-21T20:33:57.489Z,21.80
2018-05-21T20:36:25.001Z,21.80
2018-05-21T20:38:52.553Z,21.70
2018-05-21T20:41:20.838Z,21.70
2018-05-21T20:43:49.155Z,21.50
2018-05-21T20:46:16.716Z,21.50
2018-05-21T20:48:44.346Z,21.50
2018-05-21T20:51:11.823Z,21.50
2018-05-21T20:53:39.375Z,21.40
2018-05-21T20:56:06.938Z,21.30
2018-05-21T20:58:34.601Z,21.20
2018-05-21T21:01:02.127Z,21.10
2018-05-21T21:03:30.443Z,21.00
2018-05-21T21:05:58.001Z,21.00
2018-05-21T21:08:25.524Z,20.90
2018-05-21T21:10:53.833Z,21.00
2018-05-21T21:13:21.372Z,21.00
2018-05-21T21:15:48.916Z,20.90
2018-05-21T21:18:17.207Z,20.80
2018-05-21T21:20:44.781Z,20.80
2018-05-21T21:23:12.309Z,20.80
2018-05-21T21:25:40.587Z,20.70
2018-05-21T21:28:08.893Z,20.60
2018-05-21T21:30:36.420Z,20.60
2018-05-21T21:33:03.952Z,20.60
2018-05-21T21:35:31.643Z,20.70
2018-05-21T21:37:59.943Z,20.50
2018-05-21T21:40:27.479Z,20.50
2018-05-21T21:42:55.005Z,20.50
2018-05-21T21:45:22.548Z,20.50
2018-05-21T21:47:50.090Z,20.30
2018-05-21T21:50:17.741Z,20.30
2018-05-21T21:52:46.027Z,20.30
2018-05-21T21:55:13.548Z,20.30
2018-05-21T21:57:41.072Z,20.20
2018-05-21T22:00:08.717Z,20.20
2018-05-21T22:02:36.251Z,20.10
2018-05-21T22:05:03.769Z,20.20
2018-05-21T22:07:32.102Z,20.10
2018-05-21T22:09:59.645Z,20.10
2018-05-21T22:12:27.188Z,20.00
2018-05-21T22:14:54.717Z,20.00
2018-05-21T22:17:22.257Z,20.00
2018-05-21T22:19:49.805Z,19.90
2018-05-21T22:22:17.369Z,19.80
2018-05-21T22:24:44.884Z,19.80
2018-05-21T22:27:12.403Z,19.80
2018-05-21T22:29:41.447Z,19.70
2018-05-21T22:32:08.976Z,19.70
2018-05-21T22:34:36.502Z,19.70
2018-05-21T22:37:04.081Z,19.60
2018-05-21T22:39:31.595Z,19.50
2018-05-21T22:41:59.219Z,19.40
2018-05-21T22:44:26.751Z,19.30
2018-05-21T22:46:54.295Z,19.20
2018-05-21T22:49:21.918Z,19.10
2018-05-21T22:51:49.458Z,19.00
2018-05-21T22:54:28.971Z,18.90
2018-05-21T22:56:56.520Z,19.00
2018-05-21T22:59:24.097Z,18.90
2018-05-21T23:01:51.802Z,18.80
2018-05-21T23:04:19.339Z,18.60
2018-05-21T23:06:46.881Z,18.40
2018-05-21T23:09:14.433Z,18.50
2018-05-21T23:11:42.738Z,18.40
2018-05-21T23:14:10.262Z,18.40
2018-05-21T23:16:37.811Z,18.40
2018-05-21T23:19:06.120Z,18.20
2018-05-21T23:21:34.407Z,18.10
2018-05-21T23:24:01.928Z,18.10
2018-05-21T23:26:29.457Z,18.00
2018-05-21T23:28:56.983Z,18.00
2018-05-21T23:31:24.611Z,17.90
2018-05-21T23:33:52.155Z,17.70
2018-05-21T23:36:19.709Z,17.80
2018-05-21T23:38:47.255Z,17.70
2018-05-21T23:41:14.790Z,17.60
2018-05-21T23:43:42.318Z,17.50
2018-05-21T23:46:09.847Z,17.50
2018-05-21T23:48:37.544Z,17.40
2018-05-21T23:51:05.102Z,17.30
2018-05-21T23:53:32.690Z,17.30
2018-05-21T23:56:00.240Z,17.30
2018-05-21T23:58:27.774Z,17.30
